sensor_id;sensor_type;location;lat;lon;timestamp;pressure;altitude;pressure_sealevel;temperature;humidity
60246;BME280;46107;53.356;-1.524;2022-07-23T00:00:29;99290.23;;;15.31;50.90
60246;BME280;46107;53.356;-1.524;2022-07-23T00:02:56;99287.03;;;15.91;50.06
60246;BME280;46107;53.356;-1.524;2022-07-23T00:05:24;99273.06;;;16.38;48.61
60246;BME280;46107;53.356;-1.524;2022-07-23T00:07:52;99268.51;;;16.14;49.22
60246;BME280;46107;53.356;-1.524;2022-07-23T00:10:19;99265.02;;;15.90;49.62
60246;BME280;46107;53.356;-1.524;2022-07-23T00:12:46;99266.30;;;16.36;48.78
60246;BME280;46107;53.356;-1.524;2022-07-23T00:15:14;99269.31;;;17.23;47.19
60246;BME280;46107;53.356;-1.524;2022-07-23T00:17:41;99275.43;;;17.49;46.27
60246;BME280;46107;53.356;-1.524;2022-07-23T00:20:11;99278.51;;;18.05;45.64
60246;BME280;46107;53.356;-1.524;2022-07-23T00:22:46;99274.77;;;17.90;45.86
60246;BME280;46107;53.356;-1.524;2022-07-23T00:25:13;99272.34;;;17.69;46.22
60246;BME280;46107;53.356;-1.524;2022-07-23T00:27:41;99271.81;;;17.49;46.84
60246;BME280;46107;53.356;-1.524;2022-07-23T00:30:09;99273.78;;;18.06;45.89
60246;BME280;46107;53.356;-1.524;2022-07-23T00:32:46;99273.64;;;17.79;46.15
60246;BME280;46107;53.356;-1.524;2022-07-23T00:35:14;99276.67;;;18.16;45.74
60246;BME280;46107;53.356;-1.524;2022-07-23T00:37:41;99274.97;;;17.83;45.25
60246;BME280;46107;53.356;-1.524;2022-07-23T00:40:10;99273.72;;;18.08;45.61
60246;BME280;46107;53.356;-1.524;2022-07-23T00:42:38;99270.47;;;17.62;46.24
60246;BME280;46107;53.356;-1.524;2022-07-23T00:45:07;99266.01;;;17.68;45.62
60246;BME280;46107;53.356;-1.524;2022-07-23T00:47:35;99261.63;;;17.50;45.92
60246;BME280;46107;53.356;-1.524;2022-07-23T00:50:04;99259.51;;;17.32;46.37
60246;BME280;46107;53.356;-1.524;2022-07-23T00:52:33;99252.84;;;17.33;46.62
60246;BME280;46107;53.356;-1.524;2022-07-23T00:55:02;99246.74;;;17.28;46.03
60246;BME280;46107;53.356;-1.524;2022-07-23T00:57:30;99244.13;;;17.47;45.51
60246;BME280;46107;53.356;-1.524;2022-07-23T00:59:57;99244.96;;;17.76;44.80
60246;BME280;46107;53.356;-1.524;2022-07-23T01:02:25;99242.86;;;17.89;45.07
60246;BME280;46107;53.356;-1.524;2022-07-23T01:04:53;99235.77;;;17.56;46.46
60246;BME280;46107;53.356;-1.524;2022-07-23T01:07:21;99231.11;;;17.33;46.86
60246;BME280;46107;53.356;-1.524;2022-07-23T01:09:49;99229.94;;;17.67;46.21
60246;BME280;46107;53.356;-1.524;2022-07-23T01:12:17;99231.74;;;17.05;47.84
60246;BME280;46107;53.356;-1.524;2022-07-23T01:14:45;99233.01;;;17.88;46.73
60246;BME280;46107;53.356;-1.524;2022-07-23T01:17:12;99226.35;;;17.99;45.93
60246;BME280;46107;53.356;-1.524;2022-07-23T01:19:40;99228.32;;;17.99;46.03
60246;BME280;46107;53.356;-1.524;2022-07-23T01:22:08;99226.66;;;18.36;44.95
60246;BME280;46107;53.356;-1.524;2022-07-23T01:24:35;99225.34;;;17.96;45.66
60246;BME280;46107;53.356;-1.524;2022-07-23T01:27:03;99225.74;;;17.52;45.84
60246;BME280;46107;53.356;-1.524;2022-07-23T01:29:31;99222.04;;;17.80;45.98
60246;BME280;46107;53.356;-1.524;2022-07-23T01:31:58;99222.39;;;17.99;45.45
60246;BME280;46107;53.356;-1.524;2022-07-23T01:34:26;99223.56;;;17.82;46.30
60246;BME280;46107;53.356;-1.524;2022-07-23T01:36:54;99222.35;;;18.12;45.69
60246;BME280;46107;53.356;-1.524;2022-07-23T01:39:21;99228.77;;;17.77;46.65
60246;BME280;46107;53.356;-1.524;2022-07-23T01:41:49;99227.20;;;17.81;45.87
60246;BME280;46107;53.356;-1.524;2022-07-23T01:44:16;99228.89;;;17.90;46.42
60246;BME280;46107;53.356;-1.524;2022-07-23T01:46:43;99228.64;;;17.66;46.29
60246;BME280;46107;53.356;-1.524;2022-07-23T01:49:11;99224.76;;;17.63;46.44
60246;BME280;46107;53.356;-1.524;2022-07-23T01:51:38;99221.89;;;18.01;45.56
60246;BME280;46107;53.356;-1.524;2022-07-23T01:54:06;99223.10;;;18.18;45.81
60246;BME280;46107;53.356;-1.524;2022-07-23T01:56:33;99221.57;;;18.06;46.26
60246;BME280;46107;53.356;-1.524;2022-07-23T01:59:00;99224.71;;;18.36;45.76
60246;BME280;46107;53.356;-1.524;2022-07-23T02:01:28;99224.83;;;18.11;44.89
60246;BME280;46107;53.356;-1.524;2022-07-23T02:03:55;99221.33;;;18.09;45.21
60246;BME280;46107;53.356;-1.524;2022-07-23T02:06:23;99220.00;;;17.60;47.12
60246;BME280;46107;53.356;-1.524;2022-07-23T02:08:51;99216.92;;;17.52;47.49
60246;BME280;46107;53.356;-1.524;2022-07-23T02:11:19;99216.72;;;17.13;48.50
60246;BME280;46107;53.356;-1.524;2022-07-23T02:13:46;99216.77;;;17.15;47.98
60246;BME280;46107;53.356;-1.524;2022-07-23T02:16:14;99211.27;;;17.97;46.84
60246;BME280;46107;53.356;-1.524;2022-07-23T02:18:41;99209.05;;;18.28;46.48
60246;BME280;46107;53.356;-1.524;2022-07-23T02:21:09;99205.84;;;17.94;46.90
60246;BME280;46107;53.356;-1.524;2022-07-23T02:23:36;99203.42;;;18.04;47.09
60246;BME280;46107;53.356;-1.524;2022-07-23T02:26:04;99201.54;;;18.57;46.16
60246;BME280;46107;53.356;-1.524;2022-07-23T02:28:31;99205.31;;;18.29;46.21
60246;BME280;46107;53.356;-1.524;2022-07-23T02:30:59;99206.58;;;18.00;46.51
60246;BME280;46107;53.356;-1.524;2022-07-23T02:33:26;99207.67;;;17.67;47.72
60246;BME280;46107;53.356;-1.524;2022-07-23T02:35:54;99211.00;;;17.05;49.05
60246;BME280;46107;53.356;-1.524;2022-07-23T02:38:21;99207.72;;;18.21;46.82
60246;BME280;46107;53.356;-1.524;2022-07-23T02:40:49;99207.18;;;17.91;47.57
60246;BME280;46107;53.356;-1.524;2022-07-23T02:43:16;99210.46;;;17.86;47.76
60246;BME280;46107;53.356;-1.524;2022-07-23T02:45:44;99211.60;;;18.00;47.06
60246;BME280;46107;53.356;-1.524;2022-07-23T02:48:11;99215.47;;;17.24;48.61
60246;BME280;46107;53.356;-1.524;2022-07-23T02:50:39;99209.15;;;18.01;46.85
60246;BME280;46107;53.356;-1.524;2022-07-23T02:53:06;99210.38;;;17.47;47.03
60246;BME280;46107;53.356;-1.524;2022-07-23T02:55:34;99208.33;;;17.86;46.89
60246;BME280;46107;53.356;-1.524;2022-07-23T02:58:01;99204.88;;;17.50;47.44
60246;BME280;46107;53.356;-1.524;2022-07-23T03:00:29;99200.84;;;17.30;47.91
60246;BME280;46107;53.356;-1.524;2022-07-23T03:02:56;99203.23;;;17.60;46.72
60246;BME280;46107;53.356;-1.524;2022-07-23T03:05:24;99200.60;;;17.92;46.38
60246;BME280;46107;53.356;-1.524;2022-07-23T03:07:51;99199.26;;;17.70;46.70
60246;BME280;46107;53.356;-1.524;2022-07-23T03:10:18;99200.66;;;17.67;46.40
60246;BME280;46107;53.356;-1.524;2022-07-23T03:12:45;99205.77;;;16.63;48.44
60246;BME280;46107;53.356;-1.524;2022-07-23T03:15:13;99212.51;;;16.92;47.89
60246;BME280;46107;53.356;-1.524;2022-07-23T03:17:40;99213.05;;;17.54;46.57
60246;BME280;46107;53.356;-1.524;2022-07-23T03:20:09;99209.96;;;16.59;47.47
60246;BME280;46107;53.356;-1.524;2022-07-23T03:22:36;99209.88;;;17.05;47.27
60246;BME280;46107;53.356;-1.524;2022-07-23T03:25:05;99214.97;;;17.85;46.31
60246;BME280;46107;53.356;-1.524;2022-07-23T03:27:32;99219.11;;;16.36;48.55
60246;BME280;46107;53.356;-1.524;2022-07-23T03:30:00;99215.94;;;17.17;47.99
60246;BME280;46107;53.356;-1.524;2022-07-23T03:32:27;99210.38;;;15.94;50.59
60246;BME280;46107;53.356;-1.524;2022-07-23T03:34:54;99207.45;;;16.51;49.58
60246;BME280;46107;53.356;-1.524;2022-07-23T03:37:22;99206.63;;;16.09;50.72
60246;BME280;46107;53.356;-1.524;2022-07-23T03:39:49;99203.27;;;15.37;52.50
60246;BME280;46107;53.356;-1.524;2022-07-23T03:42:16;99202.50;;;16.20;51.64
60246;BME280;46107;53.356;-1.524;2022-07-23T03:44:43;99205.40;;;16.52;51.77
60246;BME280;46107;53.356;-1.524;2022-07-23T03:47:11;99203.09;;;16.43;51.87
60246;BME280;46107;53.356;-1.524;2022-07-23T03:49:38;99196.38;;;16.77;51.63
60246;BME280;46107;53.356;-1.524;2022-07-23T03:52:07;99199.12;;;15.74;53.38
60246;BME280;46107;53.356;-1.524;2022-07-23T03:54:34;99196.97;;;16.15;52.70
60246;BME280;46107;53.356;-1.524;2022-07-23T03:57:01;99195.10;;;16.37;51.38
60246;BME280;46107;53.356;-1.524;2022-07-23T03:59:28;99191.79;;;16.44;51.55
60246;BME280;46107;53.356;-1.524;2022-07-23T04:01:56;99191.42;;;15.61;53.09
60246;BME280;46107;53.356;-1.524;2022-07-23T04:04:23;99183.41;;;16.06;52.33
60246;BME280;46107;53.356;-1.524;2022-07-23T04:06:51;99190.21;;;16.41;51.83
60246;BME280;46107;53.356;-1.524;2022-07-23T04:09:18;99193.08;;;16.60;51.28
60246;BME280;46107;53.356;-1.524;2022-07-23T04:11:45;99189.92;;;15.91;52.85
60246;BME280;46107;53.356;-1.524;2022-07-23T04:14:13;99194.74;;;15.12;54.72
60246;BME280;46107;53.356;-1.524;2022-07-23T04:16:40;99182.85;;;15.87;52.66
60246;BME280;46107;53.356;-1.524;2022-07-23T04:19:08;99184.99;;;16.90;50.26
60246;BME280;46107;53.356;-1.524;2022-07-23T04:21:36;99185.13;;;16.73;50.80
60246;BME280;46107;53.356;-1.524;2022-07-23T04:24:04;99189.44;;;17.68;48.60
60246;BME280;46107;53.356;-1.524;2022-07-23T04:26:31;99189.94;;;17.64;48.69
60246;BME280;46107;53.356;-1.524;2022-07-23T04:28:58;99196.37;;;17.17;49.46
60246;BME280;46107;53.356;-1.524;2022-07-23T04:31:27;99202.05;;;17.55;48.17
60246;BME280;46107;53.356;-1.524;2022-07-23T04:33:53;99197.70;;;17.67;48.07
60246;BME280;46107;53.356;-1.524;2022-07-23T04:36:20;99189.13;;;17.28;48.76
60246;BME280;46107;53.356;-1.524;2022-07-23T04:38:48;99189.59;;;15.57;52.40
60246;BME280;46107;53.356;-1.524;2022-07-23T04:41:15;99183.13;;;16.98;49.91
60246;BME280;46107;53.356;-1.524;2022-07-23T04:43:42;99177.26;;;16.09;51.59
60246;BME280;46107;53.356;-1.524;2022-07-23T04:46:09;99176.72;;;17.20;49.71
60246;BME280;46107;53.356;-1.524;2022-07-23T04:48:36;99180.63;;;17.04;49.40
60246;BME280;46107;53.356;-1.524;2022-07-23T04:51:04;99179.90;;;17.49;48.78
60246;BME280;46107;53.356;-1.524;2022-07-23T04:53:32;99183.26;;;17.19;48.74
60246;BME280;46107;53.356;-1.524;2022-07-23T04:55:59;99182.68;;;17.77;47.92
60246;BME280;46107;53.356;-1.524;2022-07-23T04:58:27;99185.02;;;16.61;49.42
60246;BME280;46107;53.356;-1.524;2022-07-23T05:00:54;99183.36;;;16.97;49.89
60246;BME280;46107;53.356;-1.524;2022-07-23T05:03:21;99182.40;;;16.45;50.24
60246;BME280;46107;53.356;-1.524;2022-07-23T05:05:48;99186.10;;;17.29;48.91
60246;BME280;46107;53.356;-1.524;2022-07-23T05:08:16;99186.27;;;17.10;48.90
60246;BME280;46107;53.356;-1.524;2022-07-23T05:10:43;99187.94;;;17.42;48.65
60246;BME280;46107;53.356;-1.524;2022-07-23T05:13:11;99188.11;;;17.34;49.17
60246;BME280;46107;53.356;-1.524;2022-07-23T05:15:38;99189.07;;;16.17;51.71
60246;BME280;46107;53.356;-1.524;2022-07-23T05:18:05;99183.13;;;17.17;49.34
60246;BME280;46107;53.356;-1.524;2022-07-23T05:20:33;99179.23;;;15.52;52.71
60246;BME280;46107;53.356;-1.524;2022-07-23T05:23:00;99181.82;;;16.83;50.74
60246;BME280;46107;53.356;-1.524;2022-07-23T05:25:27;99184.37;;;17.33;49.32
60246;BME280;46107;53.356;-1.524;2022-07-23T05:27:55;99184.12;;;17.08;49.79
60246;BME280;46107;53.356;-1.524;2022-07-23T05:30:23;99183.49;;;17.54;48.85
60246;BME280;46107;53.356;-1.524;2022-07-23T05:32:50;99185.66;;;18.24;48.12
60246;BME280;46107;53.356;-1.524;2022-07-23T05:35:18;99187.93;;;17.92;48.27
60246;BME280;46107;53.356;-1.524;2022-07-23T05:37:45;99190.45;;;18.11;47.90
60246;BME280;46107;53.356;-1.524;2022-07-23T05:40:13;99188.10;;;17.79;48.81
60246;BME280;46107;53.356;-1.524;2022-07-23T05:42:41;99185.97;;;18.23;48.33
60246;BME280;46107;53.356;-1.524;2022-07-23T05:45:09;99183.81;;;17.93;48.13
60246;BME280;46107;53.356;-1.524;2022-07-23T05:47:41;99189.42;;;18.26;47.84
60246;BME280;46107;53.356;-1.524;2022-07-23T05:50:11;99188.89;;;18.07;48.27
60246;BME280;46107;53.356;-1.524;2022-07-23T05:52:39;99186.66;;;18.39;47.74
60246;BME280;46107;53.356;-1.524;2022-07-23T05:55:08;99189.95;;;18.10;47.79
60246;BME280;46107;53.356;-1.524;2022-07-23T05:57:36;99190.02;;;18.24;47.57
60246;BME280;46107;53.356;-1.524;2022-07-23T06:00:05;99187.54;;;18.28;47.95
60246;BME280;46107;53.356;-1.524;2022-07-23T06:02:32;99187.34;;;16.78;50.77
60246;BME280;46107;53.356;-1.524;2022-07-23T06:05:00;99183.20;;;17.26;49.94
60246;BME280;46107;53.356;-1.524;2022-07-23T06:07:27;99176.18;;;18.27;48.57
60246;BME280;46107;53.356;-1.524;2022-07-23T06:09:54;99172.98;;;17.39;50.07
60246;BME280;46107;53.356;-1.524;2022-07-23T06:12:21;99174.52;;;17.36;50.28
60246;BME280;46107;53.356;-1.524;2022-07-23T06:14:48;99179.45;;;16.93;51.27
60246;BME280;46107;53.356;-1.524;2022-07-23T06:17:16;99186.42;;;16.77;51.93
60246;BME280;46107;53.356;-1.524;2022-07-23T06:19:43;99190.42;;;17.24;50.97
60246;BME280;46107;53.356;-1.524;2022-07-23T06:22:10;99181.63;;;18.14;49.36
60246;BME280;46107;53.356;-1.524;2022-07-23T06:24:38;99181.37;;;17.34;50.85
60246;BME280;46107;53.356;-1.524;2022-07-23T06:27:05;99179.45;;;16.66;52.71
60246;BME280;46107;53.356;-1.524;2022-07-23T06:29:32;99179.97;;;15.82;54.30
60246;BME280;46107;53.356;-1.524;2022-07-23T06:32:00;99175.55;;;16.60;53.08
60246;BME280;46107;53.356;-1.524;2022-07-23T06:34:28;99182.56;;;16.95;52.07
60246;BME280;46107;53.356;-1.524;2022-07-23T06:36:55;99181.65;;;17.93;50.56
60246;BME280;46107;53.356;-1.524;2022-07-23T06:39:22;99179.93;;;18.27;49.96
60246;BME280;46107;53.356;-1.524;2022-07-23T06:41:50;99178.76;;;17.45;51.59
60246;BME280;46107;53.356;-1.524;2022-07-23T06:44:17;99181.95;;;18.38;49.84
60246;BME280;46107;53.356;-1.524;2022-07-23T06:46:45;99188.55;;;17.19;52.50
60246;BME280;46107;53.356;-1.524;2022-07-23T06:49:12;99186.96;;;16.46;55.00
60246;BME280;46107;53.356;-1.524;2022-07-23T06:51:40;99181.51;;;17.91;51.64
60246;BME280;46107;53.356;-1.524;2022-07-23T06:54:07;99180.96;;;18.09;50.08
60246;BME280;46107;53.356;-1.524;2022-07-23T06:56:35;99178.39;;;17.82;50.37
60246;BME280;46107;53.356;-1.524;2022-07-23T06:59:02;99185.62;;;17.55;51.64
60246;BME280;46107;53.356;-1.524;2022-07-23T07:01:29;99184.52;;;17.54;50.88
60246;BME280;46107;53.356;-1.524;2022-07-23T07:03:57;99182.62;;;17.11;51.04
60246;BME280;46107;53.356;-1.524;2022-07-23T07:06:24;99185.56;;;19.42;47.59
60246;BME280;46107;53.356;-1.524;2022-07-23T07:08:51;99183.67;;;17.92;50.51
60246;BME280;46107;53.356;-1.524;2022-07-23T07:11:18;99189.59;;;18.16;49.47
60246;BME280;46107;53.356;-1.524;2022-07-23T07:13:45;99194.09;;;18.57;48.05
60246;BME280;46107;53.356;-1.524;2022-07-23T07:16:13;99187.84;;;19.32;46.20
60246;BME280;46107;53.356;-1.524;2022-07-23T07:18:40;99186.83;;;19.26;46.68
60246;BME280;46107;53.356;-1.524;2022-07-23T07:21:08;99184.58;;;19.77;46.08
60246;BME280;46107;53.356;-1.524;2022-07-23T07:23:35;99186.32;;;18.44;47.95
60246;BME280;46107;53.356;-1.524;2022-07-23T07:26:03;99184.68;;;19.03;47.48
60246;BME280;46107;53.356;-1.524;2022-07-23T07:28:30;99181.54;;;20.03;45.42
60246;BME280;46107;53.356;-1.524;2022-07-23T07:30:57;99187.68;;;19.35;46.23
60246;BME280;46107;53.356;-1.524;2022-07-23T07:33:24;99189.80;;;19.19;44.59
60246;BME280;46107;53.356;-1.524;2022-07-23T07:35:51;99185.18;;;17.60;47.24
60246;BME280;46107;53.356;-1.524;2022-07-23T07:38:19;99189.72;;;18.93;47.10
60246;BME280;46107;53.356;-1.524;2022-07-23T07:40:46;99186.30;;;18.31;48.57
60246;BME280;46107;53.356;-1.524;2022-07-23T07:43:14;99185.03;;;19.02;46.90
60246;BME280;46107;53.356;-1.524;2022-07-23T07:45:41;99178.61;;;19.96;45.17
60246;BME280;46107;53.356;-1.524;2022-07-23T07:48:08;99176.66;;;20.57;44.71
60246;BME280;46107;53.356;-1.524;2022-07-23T07:50:36;99179.24;;;18.79;47.59
60246;BME280;46107;53.356;-1.524;2022-07-23T07:53:03;99178.06;;;19.66;44.25
60246;BME280;46107;53.356;-1.524;2022-07-23T07:55:30;99179.61;;;19.43;45.02
60246;BME280;46107;53.356;-1.524;2022-07-23T07:57:58;99182.15;;;17.95;47.49
60246;BME280;46107;53.356;-1.524;2022-07-23T08:00:25;99171.08;;;18.76;46.14
60246;BME280;46107;53.356;-1.524;2022-07-23T08:02:53;99167.83;;;19.12;45.62
60246;BME280;46107;53.356;-1.524;2022-07-23T08:05:23;99174.47;;;18.07;47.73
60246;BME280;46107;53.356;-1.524;2022-07-23T08:07:50;99174.03;;;18.67;48.18
60246;BME280;46107;53.356;-1.524;2022-07-23T08:10:18;99178.64;;;19.31;46.71
60246;BME280;46107;53.356;-1.524;2022-07-23T08:12:47;99176.43;;;20.10;44.52
60246;BME280;46107;53.356;-1.524;2022-07-23T08:15:19;99177.98;;;19.48;45.79
60246;BME280;46107;53.356;-1.524;2022-07-23T08:17:47;99179.34;;;19.27;46.83
60246;BME280;46107;53.356;-1.524;2022-07-23T08:20:16;99170.50;;;19.63;45.38
60246;BME280;46107;53.356;-1.524;2022-07-23T08:22:46;99167.06;;;20.69;44.46
60246;BME280;46107;53.356;-1.524;2022-07-23T08:25:15;99167.80;;;19.95;45.07
60246;BME280;46107;53.356;-1.524;2022-07-23T08:27:42;99167.55;;;19.92;45.35
60246;BME280;46107;53.356;-1.524;2022-07-23T08:30:10;99172.28;;;18.59;46.93
60246;BME280;46107;53.356;-1.524;2022-07-23T08:32:56;99174.17;;;17.86;48.69
60246;BME280;46107;53.356;-1.524;2022-07-23T08:35:25;99173.97;;;18.83;47.82
60246;BME280;46107;53.356;-1.524;2022-07-23T08:37:53;99175.03;;;18.12;47.42
60246;BME280;46107;53.356;-1.524;2022-07-23T08:40:22;99173.11;;;18.14;48.92
60246;BME280;46107;53.356;-1.524;2022-07-23T08:42:51;99169.87;;;19.32;46.84
60246;BME280;46107;53.356;-1.524;2022-07-23T08:45:20;99166.13;;;17.33;50.37
60246;BME280;46107;53.356;-1.524;2022-07-23T08:47:49;99167.15;;;19.16;46.19
60246;BME280;46107;53.356;-1.524;2022-07-23T08:50:18;99164.04;;;19.26;46.56
60246;BME280;46107;53.356;-1.524;2022-07-23T08:52:45;99151.20;;;19.77;45.78
60246;BME280;46107;53.356;-1.524;2022-07-23T08:55:12;99156.13;;;19.72;46.65
60246;BME280;46107;53.356;-1.524;2022-07-23T08:57:40;99166.16;;;18.26;48.14
60246;BME280;46107;53.356;-1.524;2022-07-23T09:00:09;99164.49;;;19.34;47.00
60246;BME280;46107;53.356;-1.524;2022-07-23T09:02:41;99167.96;;;18.42;48.68
60246;BME280;46107;53.356;-1.524;2022-07-23T09:05:09;99171.18;;;18.99;47.21
60246;BME280;46107;53.356;-1.524;2022-07-23T09:07:38;99170.22;;;19.97;45.61
60246;BME280;46107;53.356;-1.524;2022-07-23T09:10:08;99173.81;;;17.14;50.56
60246;BME280;46107;53.356;-1.524;2022-07-23T09:12:36;99173.00;;;18.74;47.99
60246;BME280;46107;53.356;-1.524;2022-07-23T09:15:06;99174.75;;;19.03;46.99
60246;BME280;46107;53.356;-1.524;2022-07-23T09:17:38;99167.57;;;19.67;45.83
60246;BME280;46107;53.356;-1.524;2022-07-23T09:20:11;99166.68;;;19.02;46.75
60246;BME280;46107;53.356;-1.524;2022-07-23T09:22:40;99172.70;;;18.18;45.92
60246;BME280;46107;53.356;-1.524;2022-07-23T09:25:13;99174.53;;;19.15;44.48
60246;BME280;46107;53.356;-1.524;2022-07-23T09:27:52;99170.43;;;19.38;44.80
60246;BME280;46107;53.356;-1.524;2022-07-23T09:30:20;99162.18;;;20.48;43.49
60246;BME280;46107;53.356;-1.524;2022-07-23T09:33:06;99161.53;;;20.62;42.92
60246;BME280;46107;53.356;-1.524;2022-07-23T09:35:50;99157.71;;;21.15;42.12
60246;BME280;46107;53.356;-1.524;2022-07-23T09:38:20;99156.67;;;19.78;43.93
60246;BME280;46107;53.356;-1.524;2022-07-23T09:41:05;99162.46;;;20.52;45.88
60246;BME280;46107;53.356;-1.524;2022-07-23T09:43:32;99161.81;;;20.76;42.28
60246;BME280;46107;53.356;-1.524;2022-07-23T09:46:17;99155.69;;;19.96;44.66
60246;BME280;46107;53.356;-1.524;2022-07-23T09:48:45;99159.29;;;20.44;42.69
60246;BME280;46107;53.356;-1.524;2022-07-23T09:51:12;99161.13;;;20.62;42.73
60246;BME280;46107;53.356;-1.524;2022-07-23T09:53:39;99163.56;;;19.90;44.35
60246;BME280;46107;53.356;-1.524;2022-07-23T09:56:07;99161.41;;;19.49;44.54
60246;BME280;46107;53.356;-1.524;2022-07-23T09:58:39;99174.51;;;18.48;47.11
60246;BME280;46107;53.356;-1.524;2022-07-23T10:01:07;99167.37;;;19.91;43.96
60246;BME280;46107;53.356;-1.524;2022-07-23T10:03:34;99162.99;;;20.80;42.19
60246;BME280;46107;53.356;-1.524;2022-07-23T10:06:01;99151.86;;;20.36;43.11
60246;BME280;46107;53.356;-1.524;2022-07-23T10:08:29;99154.61;;;19.22;46.47
60246;BME280;46107;53.356;-1.524;2022-07-23T10:10:59;99158.51;;;18.28;47.68
60246;BME280;46107;53.356;-1.524;2022-07-23T10:13:27;99147.11;;;20.04;45.77
60246;BME280;46107;53.356;-1.524;2022-07-23T10:15:55;99145.54;;;19.94;45.56
60246;BME280;46107;53.356;-1.524;2022-07-23T10:18:23;99154.24;;;18.22;48.19
60246;BME280;46107;53.356;-1.524;2022-07-23T10:20:52;99152.91;;;19.69;44.78
60246;BME280;46107;53.356;-1.524;2022-07-23T10:23:27;99154.76;;;19.37;45.14
60246;BME280;46107;53.356;-1.524;2022-07-23T10:26:03;99162.99;;;19.27;45.29
60246;BME280;46107;53.356;-1.524;2022-07-23T10:28:47;99154.39;;;20.14;44.45
60246;BME280;46107;53.356;-1.524;2022-07-23T10:31:28;99158.13;;;20.03;42.71
60246;BME280;46107;53.356;-1.524;2022-07-23T10:34:11;99158.35;;;20.73;41.14
60246;BME280;46107;53.356;-1.524;2022-07-23T10:36:48;99155.77;;;20.87;41.54
60246;BME280;46107;53.356;-1.524;2022-07-23T10:39:22;99160.06;;;19.20;43.74
60246;BME280;46107;53.356;-1.524;2022-07-23T10:41:49;99156.35;;;21.68;40.62
60246;BME280;46107;53.356;-1.524;2022-07-23T10:44:20;99153.18;;;21.52;40.11
60246;BME280;46107;53.356;-1.524;2022-07-23T10:47:04;99151.98;;;19.98;43.04
60246;BME280;46107;53.356;-1.524;2022-07-23T10:49:33;99148.45;;;20.87;41.44
60246;BME280;46107;53.356;-1.524;2022-07-23T10:52:19;99149.73;;;20.38;42.08
60246;BME280;46107;53.356;-1.524;2022-07-23T10:54:47;99147.03;;;19.56;42.53
60246;BME280;46107;53.356;-1.524;2022-07-23T10:57:15;99143.54;;;21.88;39.43
60246;BME280;46107;53.356;-1.524;2022-07-23T11:00:20;99147.53;;;20.30;42.96
60246;BME280;46107;53.356;-1.524;2022-07-23T11:02:50;99148.97;;;21.31;41.08
60246;BME280;46107;53.356;-1.524;2022-07-23T11:05:19;99144.38;;;21.74;40.02
60246;BME280;46107;53.356;-1.524;2022-07-23T11:08:21;99137.08;;;22.07;39.78
60246;BME280;46107;53.356;-1.524;2022-07-23T11:10:51;99134.88;;;20.24;40.22
60246;BME280;46107;53.356;-1.524;2022-07-23T11:13:30;99138.56;;;20.59;38.71
60246;BME280;46107;53.356;-1.524;2022-07-23T11:16:06;99133.79;;;19.24;40.84
60246;BME280;46107;53.356;-1.524;2022-07-23T11:19:08;99132.07;;;21.20;38.34
60246;BME280;46107;53.356;-1.524;2022-07-23T11:21:51;99137.86;;;21.52;38.23
60246;BME280;46107;53.356;-1.524;2022-07-23T11:24:22;99139.82;;;21.00;38.73
60246;BME280;46107;53.356;-1.524;2022-07-23T11:26:54;99142.27;;;20.49;39.76
60246;BME280;46107;53.356;-1.524;2022-07-23T11:29:41;99142.74;;;21.31;39.06
60246;BME280;46107;53.356;-1.524;2022-07-23T11:32:19;99145.35;;;21.00;40.07
60246;BME280;46107;53.356;-1.524;2022-07-23T11:34:51;99143.36;;;19.02;42.36
60246;BME280;46107;53.356;-1.524;2022-07-23T11:37:37;99137.22;;;20.47;41.60
60246;BME280;46107;53.356;-1.524;2022-07-23T11:40:07;99133.88;;;20.43;40.46
60246;BME280;46107;53.356;-1.524;2022-07-23T11:42:37;99136.20;;;19.30;42.06
60246;BME280;46107;53.356;-1.524;2022-07-23T11:45:07;99136.40;;;19.99;41.72
60246;BME280;46107;53.356;-1.524;2022-07-23T11:47:35;99136.82;;;20.12;41.37
60246;BME280;46107;53.356;-1.524;2022-07-23T11:50:05;99133.72;;;20.18;41.30
60246;BME280;46107;53.356;-1.524;2022-07-23T11:52:33;99137.20;;;20.03;42.42
60246;BME280;46107;53.356;-1.524;2022-07-23T11:55:03;99137.16;;;19.67;42.88
60246;BME280;46107;53.356;-1.524;2022-07-23T11:57:32;99140.31;;;20.16;41.24
60246;BME280;46107;53.356;-1.524;2022-07-23T12:00:04;99142.93;;;20.06;42.26
60246;BME280;46107;53.356;-1.524;2022-07-23T12:02:31;99137.31;;;20.39;42.19
60246;BME280;46107;53.356;-1.524;2022-07-23T12:04:59;99135.66;;;19.71;42.94
60246;BME280;46107;53.356;-1.524;2022-07-23T12:07:30;99135.51;;;19.46;42.78
60246;BME280;46107;53.356;-1.524;2022-07-23T12:10:02;99135.00;;;19.77;43.04
60246;BME280;46107;53.356;-1.524;2022-07-23T12:12:36;99139.02;;;18.45;44.59
60246;BME280;46107;53.356;-1.524;2022-07-23T12:15:05;99138.61;;;19.60;43.89
60246;BME280;46107;53.356;-1.524;2022-07-23T12:17:35;99145.07;;;18.05;46.22
60246;BME280;46107;53.356;-1.524;2022-07-23T12:20:05;99147.78;;;18.81;45.25
60246;BME280;46107;53.356;-1.524;2022-07-23T12:22:37;99147.10;;;18.76;44.26
60246;BME280;46107;53.356;-1.524;2022-07-23T12:25:09;99142.88;;;19.44;42.54
60246;BME280;46107;53.356;-1.524;2022-07-23T12:27:36;99149.74;;;19.27;44.51
60246;BME280;46107;53.356;-1.524;2022-07-23T12:30:23;99144.47;;;20.32;41.89
60246;BME280;46107;53.356;-1.524;2022-07-23T12:32:52;99151.29;;;18.85;44.67
60246;BME280;46107;53.356;-1.524;2022-07-23T12:35:21;99152.54;;;19.01;44.96
60246;BME280;46107;53.356;-1.524;2022-07-23T12:37:51;99152.20;;;18.18;46.42
60246;BME280;46107;53.356;-1.524;2022-07-23T12:40:21;99147.58;;;17.47;46.61
60246;BME280;46107;53.356;-1.524;2022-07-23T12:42:50;99141.90;;;17.59;47.03
60246;BME280;46107;53.356;-1.524;2022-07-23T12:45:18;99139.97;;;18.65;46.13
60246;BME280;46107;53.356;-1.524;2022-07-23T12:48:04;99128.68;;;18.56;44.94
60246;BME280;46107;53.356;-1.524;2022-07-23T12:50:36;99125.51;;;18.45;44.80
60246;BME280;46107;53.356;-1.524;2022-07-23T12:53:06;99128.87;;;18.39;45.18
60246;BME280;46107;53.356;-1.524;2022-07-23T12:55:33;99127.09;;;18.54;46.42
60246;BME280;46107;53.356;-1.524;2022-07-23T12:58:11;99124.46;;;18.94;44.85
60246;BME280;46107;53.356;-1.524;2022-07-23T13:01:23;99119.69;;;17.94;46.04